sensor_id;sensor_type;location;lat;lon;timestamp;P1;durP1;ratioP1;P2;durP2;ratioP2
20144;SDS011;10233;50.814;6.590;2023-02-05T00:00:53;12.45;;;4.88;;
20144;SDS011;10233;50.814;6.590;2023-02-05T00:01:53;13.90;;;5.87;;
20144;SDS011;10233;50.814;6.590;2023-02-05T00:02:54;13.38;;;4.95;;
20144;SDS011;10233;50.814;6.590;2023-02-05T00:03:54;10.43;;;5.73;;
20144;SDS011;10233;50.814;6.590;2023-02-05T00:04:54;13.27;;;6.70;;
20144;SDS011;10233;50.814;6.590;2023-02-05T00:05:55;14.97;;;6.83;;
20144;SDS011;10233;50.814;6.590;2023-02-05T00:06:55;15.83;;;6.23;;
20144;SDS011;10233;50.814;6.590;2023-02-05T00:07:56;14.23;;;5.47;;
20144;SDS011;10233;50.814;6.590;2023-02-05T00:08:56;15.07;;;5.33;;
20144;SDS011;10233;50.814;6.590;2023-02-05T00:09:57;13.57;;;5.25;;
20144;SDS011;10233;50.814;6.590;2023-02-05T00:10:58;13.38;;;5.65;;
20144;SDS011;10233;50.814;6.590;2023-02-05T00:11:58;13.37;;;5.60;;
20144;SDS011;10233;50.814;6.590;2023-02-05T00:12:59;11.95;;;5.72;;
20144;SDS011;10233;50.814;6.590;2023-02-05T00:13:59;12.63;;;5.50;;
20144;SDS011;10233;50.814;6.590;2023-02-05T00:15:00;13.43;;;5.13;;
20144;SDS011;10233;50.814;6.590;2023-02-05T00:16:05;15.83;;;5.73;;
20144;SDS011;10233;50.814;6.590;2023-02-05T00:17:09;13.70;;;5.20;;
20144;SDS011;10233;50.814;6.590;2023-02-05T00:18:12;10.27;;;4.88;;
20144;SDS011;10233;50.814;6.590;2023-02-05T00:19:13;16.33;;;5.80;;
20144;SDS011;10233;50.814;6.590;2023-02-05T00:20:13;20.45;;;9.65;;
20144;SDS011;10233;50.814;6.590;2023-02-05T00:21:14;22.77;;;10.03;;
20144;SDS011;10233;50.814;6.590;2023-02-05T00:22:15;14.38;;;6.75;;
20144;SDS011;10233;50.814;6.590;2023-02-05T00:23:15;13.05;;;5.88;;
20144;SDS011;10233;50.814;6.590;2023-02-05T00:24:16;16.77;;;7.70;;
20144;SDS011;10233;50.814;6.590;2023-02-05T00:25:16;21.52;;;10.48;;
20144;SDS011;10233;50.814;6.590;2023-02-05T00:26:17;16.97;;;7.90;;
20144;SDS011;10233;50.814;6.590;2023-02-05T00:27:17;18.15;;;7.60;;
20144;SDS011;10233;50.814;6.590;2023-02-05T00:28:18;18.07;;;7.40;;
20144;SDS011;10233;50.814;6.590;2023-02-05T00:29:20;14.32;;;7.03;;
20144;SDS011;10233;50.814;6.590;2023-02-05T00:30:20;17.70;;;7.57;;
20144;SDS011;10233;50.814;6.590;2023-02-05T00:31:21;16.80;;;7.60;;
20144;SDS011;10233;50.814;6.590;2023-02-05T00:32:22;18.63;;;7.57;;
20144;SDS011;10233;50.814;6.590;2023-02-05T00:33:23;12.53;;;6.23;;
20144;SDS011;10233;50.814;6.590;2023-02-05T00:34:23;13.93;;;6.33;;
20144;SDS011;10233;50.814;6.590;2023-02-05T00:35:24;13.63;;;6.30;;
20144;SDS011;10233;50.814;6.590;2023-02-05T00:36:24;16.37;;;6.90;;
20144;SDS011;10233;50.814;6.590;2023-02-05T00:37:26;14.05;;;6.53;;
20144;SDS011;10233;50.814;6.590;2023-02-05T00:38:26;18.05;;;6.45;;
20144;SDS011;10233;50.814;6.590;2023-02-05T00:39:27;13.07;;;5.90;;
20144;SDS011;10233;50.814;6.590;2023-02-05T00:40:27;18.05;;;6.47;;
20144;SDS011;10233;50.814;6.590;2023-02-05T00:41:28;14.50;;;6.10;;
20144;SDS011;10233;50.814;6.590;2023-02-05T00:42:31;10.55;;;5.50;;
20144;SDS011;10233;50.814;6.590;2023-02-05T00:43:32;9.57;;;4.73;;
20144;SDS011;10233;50.814;6.590;2023-02-05T00:44:32;10.15;;;5.13;;
20144;SDS011;10233;50.814;6.590;2023-02-05T00:45:33;12.90;;;5.30;;
20144;SDS011;10233;50.814;6.590;2023-02-05T00:46:34;14.80;;;5.80;;
20144;SDS011;10233;50.814;6.590;2023-02-05T00:47:34;10.60;;;5.18;;
20144;SDS011;10233;50.814;6.590;2023-02-05T00:48:35;12.20;;;5.43;;
20144;SDS011;10233;50.814;6.590;2023-02-05T00:49:36;12.30;;;5.93;;
20144;SDS011;10233;50.814;6.590;2023-02-05T00:50:36;17.33;;;6.07;;
20144;SDS011;10233;50.814;6.590;2023-02-05T00:51:37;13.10;;;5.53;;
20144;SDS011;10233;50.814;6.590;2023-02-05T00:52:37;9.70;;;5.00;;
20144;SDS011;10233;50.814;6.590;2023-02-05T00:53:38;11.47;;;5.13;;
20144;SDS011;10233;50.814;6.590;2023-02-05T00:54:38;13.25;;;5.55;;
20144;SDS011;10233;50.814;6.590;2023-02-05T00:55:40;10.32;;;5.22;;
20144;SDS011;10233;50.814;6.590;2023-02-05T00:56:40;9.95;;;5.18;;
20144;SDS011;10233;50.814;6.590;2023-02-05T00:57:41;14.67;;;6.17;;
20144;SDS011;10233;50.814;6.590;2023-02-05T00:58:41;14.10;;;6.00;;
20144;SDS011;10233;50.814;6.590;2023-02-05T00:59:46;15.55;;;5.60;;
20144;SDS011;10233;50.814;6.590;2023-02-05T01:00:48;16.85;;;5.97;;
20144;SDS011;10233;50.814;6.590;2023-02-05T01:01:49;15.90;;;6.35;;
20144;SDS011;10233;50.814;6.590;2023-02-05T01:02:50;17.63;;;6.20;;
20144;SDS011;10233;50.814;6.590;2023-02-05T01:03:50;14.37;;;6.27;;
20144;SDS011;10233;50.814;6.590;2023-02-05T01:04:51;17.53;;;6.80;;
20144;SDS011;10233;50.814;6.590;2023-02-05T01:05:51;17.55;;;7.75;;
20144;SDS011;10233;50.814;6.590;2023-02-05T01:06:52;16.87;;;7.00;;
20144;SDS011;10233;50.814;6.590;2023-02-05T01:07:53;19.33;;;7.63;;
20144;SDS011;10233;50.814;6.590;2023-02-05T01:08:53;19.63;;;6.80;;
20144;SDS011;10233;50.814;6.590;2023-02-05T01:09:53;15.52;;;7.68;;
20144;SDS011;10233;50.814;6.590;2023-02-05T01:10:54;16.17;;;7.03;;
20144;SDS011;10233;50.814;6.590;2023-02-05T01:11:55;17.02;;;7.22;;
20144;SDS011;10233;50.814;6.590;2023-02-05T01:12:56;13.83;;;6.23;;
20144;SDS011;10233;50.814;6.590;2023-02-05T01:13:56;13.23;;;6.28;;
20144;SDS011;10233;50.814;6.590;2023-02-05T01:14:58;13.33;;;6.40;;
20144;SDS011;10233;50.814;6.590;2023-02-05T01:16:03;12.55;;;5.72;;
20144;SDS011;10233;50.814;6.590;2023-02-05T01:17:04;15.75;;;6.68;;
20144;SDS011;10233;50.814;6.590;2023-02-05T01:18:04;14.95;;;6.60;;
20144;SDS011;10233;50.814;6.590;2023-02-05T01:19:05;12.10;;;6.30;;
20144;SDS011;10233;50.814;6.590;2023-02-05T01:20:06;18.45;;;6.97;;
20144;SDS011;10233;50.814;6.590;2023-02-05T01:21:07;15.60;;;7.00;;
20144;SDS011;10233;50.814;6.590;2023-02-05T01:22:07;15.18;;;6.75;;
20144;SDS011;10233;50.814;6.590;2023-02-05T01:23:10;18.08;;;6.63;;
20144;SDS011;10233;50.814;6.590;2023-02-05T01:24:11;16.38;;;7.03;;
20144;SDS011;10233;50.814;6.590;2023-02-05T01:25:12;13.35;;;7.07;;
20144;SDS011;10233;50.814;6.590;2023-02-05T01:26:13;16.03;;;6.67;;
20144;SDS011;10233;50.814;6.590;2023-02-05T01:27:15;13.80;;;6.53;;
20144;SDS011;10233;50.814;6.590;2023-02-05T01:28:17;14.10;;;6.23;;
20144;SDS011;10233;50.814;6.590;2023-02-05T01:29:17;15.40;;;6.43;;
20144;SDS011;10233;50.814;6.590;2023-02-05T01:30:18;16.15;;;7.10;;
20144;SDS011;10233;50.814;6.590;2023-02-05T01:31:19;14.33;;;6.50;;
20144;SDS011;10233;50.814;6.590;2023-02-05T01:32:21;18.65;;;7.22;;
20144;SDS011;10233;50.814;6.590;2023-02-05T01:33:21;15.37;;;6.27;;
20144;SDS011;10233;50.814;6.590;2023-02-05T01:34:21;13.27;;;6.28;;
20144;SDS011;10233;50.814;6.590;2023-02-05T01:35:22;17.00;;;6.13;;
20144;SDS011;10233;50.814;6.590;2023-02-05T01:36:23;14.75;;;7.10;;
20144;SDS011;10233;50.814;6.590;2023-02-05T01:37:23;16.23;;;7.10;;
20144;SDS011;10233;50.814;6.590;2023-02-05T01:38:24;14.67;;;7.33;;
20144;SDS011;10233;50.814;6.590;2023-02-05T01:39:25;14.10;;;6.38;;
20144;SDS011;10233;50.814;6.590;2023-02-05T01:40:25;15.03;;;7.27;;
20144;SDS011;10233;50.814;6.590;2023-02-05T01:41:26;15.30;;;6.93;;
20144;SDS011;10233;50.814;6.590;2023-02-05T01:42:28;16.10;;;7.40;;
20144;SDS011;10233;50.814;6.590;2023-02-05T01:43:29;14.80;;;7.65;;
20144;SDS011;10233;50.814;6.590;2023-02-05T01:44:31;15.50;;;7.05;;
20144;SDS011;10233;50.814;6.590;2023-02-05T01:46:50;16.15;;;7.30;;
20144;SDS011;10233;50.814;6.590;2023-02-05T01:47:59;15.20;;;7.03;;
20144;SDS011;10233;50.814;6.590;2023-02-05T01:49:01;18.20;;;7.50;;
20144;SDS011;10233;50.814;6.590;2023-02-05T01:50:05;18.40;;;7.30;;
20144;SDS011;10233;50.814;6.590;2023-02-05T01:51:06;18.23;;;7.05;;
20144;SDS011;10233;50.814;6.590;2023-02-05T01:52:12;17.25;;;7.40;;
20144;SDS011;10233;50.814;6.590;2023-02-05T01:53:18;14.48;;;6.57;;
20144;SDS011;10233;50.814;6.590;2023-02-05T01:54:22;12.45;;;6.68;;
20144;SDS011;10233;50.814;6.590;2023-02-05T01:55:25;16.08;;;7.35;;
20144;SDS011;10233;50.814;6.590;2023-02-05T01:56:37;17.75;;;7.53;;
20144;SDS011;10233;50.814;6.590;2023-02-05T01:58:00;19.65;;;8.95;;
20144;SDS011;10233;50.814;6.590;2023-02-05T02:00:04;19.05;;;9.00;;
20144;SDS011;10233;50.814;6.590;2023-02-05T02:01:14;18.90;;;9.13;;
20144;SDS011;10233;50.814;6.590;2023-02-05T02:02:15;20.93;;;8.93;;
20144;SDS011;10233;50.814;6.590;2023-02-05T02:03:16;20.63;;;8.57;;
20144;SDS011;10233;50.814;6.590;2023-02-05T02:04:21;21.08;;;9.05;;
20144;SDS011;10233;50.814;6.590;2023-02-05T02:05:31;17.60;;;8.50;;
20144;SDS011;10233;50.814;6.590;2023-02-05T02:06:32;24.75;;;9.65;;
20144;SDS011;10233;50.814;6.590;2023-02-05T02:07:34;18.58;;;8.23;;
20144;SDS011;10233;50.814;6.590;2023-02-05T02:08:35;19.75;;;9.35;;
20144;SDS011;10233;50.814;6.590;2023-02-05T02:09:36;19.77;;;8.68;;
20144;SDS011;10233;50.814;6.590;2023-02-05T02:10:40;15.93;;;7.55;;
20144;SDS011;10233;50.814;6.590;2023-02-05T02:11:44;23.88;;;9.20;;
20144;SDS011;10233;50.814;6.590;2023-02-05T02:12:44;19.53;;;8.17;;
20144;SDS011;10233;50.814;6.590;2023-02-05T02:13:47;22.83;;;8.98;;
20144;SDS011;10233;50.814;6.590;2023-02-05T02:14:53;19.52;;;8.35;;
20144;SDS011;10233;50.814;6.590;2023-02-05T02:15:56;20.38;;;9.32;;
20144;SDS011;10233;50.814;6.590;2023-02-05T02:16:57;23.90;;;10.07;;
20144;SDS011;10233;50.814;6.590;2023-02-05T02:18:00;25.67;;;10.13;;
20144;SDS011;10233;50.814;6.590;2023-02-05T02:20:36;21.67;;;9.50;;
20144;SDS011;10233;50.814;6.590;2023-02-05T02:24:39;24.17;;;9.95;;
20144;SDS011;10233;50.814;6.590;2023-02-05T02:27:38;22.33;;;10.38;;
20144;SDS011;10233;50.814;6.590;2023-02-05T02:29:46;20.35;;;9.73;;
20144;SDS011;10233;50.814;6.590;2023-02-05T02:31:11;23.63;;;10.35;;
20144;SDS011;10233;50.814;6.590;2023-02-05T02:35:22;21.27;;;9.50;;
20144;SDS011;10233;50.814;6.590;2023-02-05T02:38:08;21.13;;;9.95;;
20144;SDS011;10233;50.814;6.590;2023-02-05T02:41:16;20.73;;;8.98;;
20144;SDS011;10233;50.814;6.590;2023-02-05T02:42:10;21.05;;;9.20;;
20144;SDS011;10233;50.814;6.590;2023-02-05T02:43:14;22.85;;;9.10;;
20144;SDS011;10233;50.814;6.590;2023-02-05T02:44:24;22.92;;;9.27;;
20144;SDS011;10233;50.814;6.590;2023-02-05T02:45:32;20.15;;;9.40;;
20144;SDS011;10233;50.814;6.590;2023-02-05T02:46:40;19.95;;;9.40;;
20144;SDS011;10233;50.814;6.590;2023-02-05T02:47:52;20.70;;;9.25;;
20144;SDS011;10233;50.814;6.590;2023-02-05T02:48:57;24.15;;;9.57;;
20144;SDS011;10233;50.814;6.590;2023-02-05T02:50:20;19.25;;;8.90;;
20144;SDS011;10233;50.814;6.590;2023-02-05T02:51:32;17.50;;;8.55;;
20144;SDS011;10233;50.814;6.590;2023-02-05T02:52:36;17.08;;;7.82;;
20144;SDS011;10233;50.814;6.590;2023-02-05T02:53:40;16.08;;;7.97;;
20144;SDS011;10233;50.814;6.590;2023-02-05T02:54:44;19.70;;;9.05;;
20144;SDS011;10233;50.814;6.590;2023-02-05T02:55:49;18.85;;;9.07;;
20144;SDS011;10233;50.814;6.590;2023-02-05T02:56:53;20.52;;;9.13;;
20144;SDS011;10233;50.814;6.590;2023-02-05T02:57:56;19.67;;;9.25;;
20144;SDS011;10233;50.814;6.590;2023-02-05T02:59:02;19.27;;;8.98;;
20144;SDS011;10233;50.814;6.590;2023-02-05T03:00:09;21.50;;;9.27;;
20144;SDS011;10233;50.814;6.590;2023-02-05T03:01:12;19.57;;;8.73;;
20144;SDS011;10233;50.814;6.590;2023-02-05T03:02:16;17.77;;;8.45;;
20144;SDS011;10233;50.814;6.590;2023-02-05T03:03:19;16.08;;;7.85;;
20144;SDS011;10233;50.814;6.590;2023-02-05T03:04:32;18.83;;;8.98;;
20144;SDS011;10233;50.814;6.590;2023-02-05T03:05:36;19.05;;;8.45;;
20144;SDS011;10233;50.814;6.590;2023-02-05T03:06:42;22.13;;;8.73;;
20144;SDS011;10233;50.814;6.590;2023-02-05T03:07:48;21.23;;;8.70;;
20144;SDS011;10233;50.814;6.590;2023-02-05T03:08:53;20.75;;;9.30;;
20144;SDS011;10233;50.814;6.590;2023-02-05T03:10:03;19.58;;;8.52;;
20144;SDS011;10233;50.814;6.590;2023-02-05T03:11:10;21.48;;;9.57;;
20144;SDS011;10233;50.814;6.590;2023-02-05T03:12:13;18.08;;;8.43;;
20144;SDS011;10233;50.814;6.590;2023-02-05T03:13:14;23.02;;;9.73;;
20144;SDS011;10233;50.814;6.590;2023-02-05T03:14:20;24.25;;;9.70;;
20144;SDS011;10233;50.814;6.590;2023-02-05T03:15:21;25.40;;;9.95;;
20144;SDS011;10233;50.814;6.590;2023-02-05T03:16:22;20.85;;;9.10;;
20144;SDS011;10233;50.814;6.590;2023-02-05T03:17:25;19.23;;;9.70;;
20144;SDS011;10233;50.814;6.590;2023-02-05T03:18:27;21.08;;;9.82;;
20144;SDS011;10233;50.814;6.590;2023-02-05T03:19:29;22.40;;;9.70;;
20144;SDS011;10233;50.814;6.590;2023-02-05T03:20:32;20.77;;;9.50;;
20144;SDS011;10233;50.814;6.590;2023-02-05T03:21:39;21.20;;;9.32;;
20144;SDS011;10233;50.814;6.590;2023-02-05T03:22:43;22.85;;;10.10;;
20144;SDS011;10233;50.814;6.590;2023-02-05T03:23:43;22.40;;;9.17;;
20144;SDS011;10233;50.814;6.590;2023-02-05T03:24:44;22.33;;;9.25;;
20144;SDS011;10233;50.814;6.590;2023-02-05T03:25:45;23.80;;;10.10;;
20144;SDS011;10233;50.814;6.590;2023-02-05T03:26:46;22.08;;;9.27;;
20144;SDS011;10233;50.814;6.590;2023-02-05T03:27:53;20.90;;;9.63;;
20144;SDS011;10233;50.814;6.590;2023-02-05T03:28:56;22.50;;;9.57;;
20144;SDS011;10233;50.814;6.590;2023-02-05T03:30:00;24.75;;;10.82;;
20144;SDS011;10233;50.814;6.590;2023-02-05T03:33:38;22.75;;;9.98;;
20144;SDS011;10233;50.814;6.590;2023-02-05T03:37:26;22.10;;;10.75;;
20144;SDS011;10233;50.814;6.590;2023-02-05T03:38:50;24.42;;;10.23;;
20144;SDS011;10233;50.814;6.590;2023-02-05T03:44:01;23.98;;;11.00;;
20144;SDS011;10233;50.814;6.590;2023-02-05T03:53:20;27.10;;;12.15;;
20144;SDS011;10233;50.814;6.590;2023-02-05T03:54:33;25.08;;;12.13;;
20144;SDS011;10233;50.814;6.590;2023-02-05T03:55:47;26.65;;;12.23;;
20144;SDS011;10233;50.814;6.590;2023-02-05T03:56:56;25.92;;;11.85;;
20144;SDS011;10233;50.814;6.590;2023-02-05T03:58:09;26.00;;;11.82;;
20144;SDS011;10233;50.814;6.590;2023-02-05T03:59:15;24.90;;;12.35;;
20144;SDS011;10233;50.814;6.590;2023-02-05T04:00:17;28.73;;;13.50;;
20144;SDS011;10233;50.814;6.590;2023-02-05T04:01:21;30.05;;;13.98;;
20144;SDS011;10233;50.814;6.590;2023-02-05T04:02:24;29.63;;;12.45;;
20144;SDS011;10233;50.814;6.590;2023-02-05T04:03:27;26.50;;;12.82;;
20144;SDS011;10233;50.814;6.590;2023-02-05T04:04:29;31.20;;;13.13;;
20144;SDS011;10233;50.814;6.590;2023-02-05T04:05:30;30.13;;;12.50;;
20144;SDS011;10233;50.814;6.590;2023-02-05T04:06:33;27.70;;;13.70;;
20144;SDS011;10233;50.814;6.590;2023-02-05T04:07:33;31.70;;;13.23;;
20144;SDS011;10233;50.814;6.590;2023-02-05T04:08:34;29.80;;;14.23;;
20144;SDS011;10233;50.814;6.590;2023-02-05T04:09:36;30.50;;;14.32;;
20144;SDS011;10233;50.814;6.590;2023-02-05T04:10:37;31.00;;;13.85;;
20144;SDS011;10233;50.814;6.590;2023-02-05T04:11:37;32.07;;;14.50;;
20144;SDS011;10233;50.814;6.590;2023-02-05T04:12:38;31.90;;;13.87;;
20144;SDS011;10233;50.814;6.590;2023-02-05T04:13:39;29.90;;;14.17;;
20144;SDS011;10233;50.814;6.590;2023-02-05T04:14:43;31.27;;;14.15;;
20144;SDS011;10233;50.814;6.590;2023-02-05T04:15:46;31.35;;;14.25;;
20144;SDS011;10233;50.814;6.590;2023-02-05T04:16:49;31.58;;;14.32;;
20144;SDS011;10233;50.814;6.590;2023-02-05T04:17:51;30.52;;;13.23;;
20144;SDS011;10233;50.814;6.590;2023-02-05T04:18:52;29.55;;;13.85;;
20144;SDS011;10233;50.814;6.590;2023-02-05T04:19:53;30.10;;;14.32;;
20144;SDS011;10233;50.814;6.590;2023-02-05T04:20:54;31.00;;;14.60;;
20144;SDS011;10233;50.814;6.590;2023-02-05T04:21:58;31.40;;;14.07;;
20144;SDS011;10233;50.814;6.590;2023-02-05T04:22:58;29.13;;;13.70;;
20144;SDS011;10233;50.814;6.590;2023-02-05T04:24:00;29.30;;;13.75;;
20144;SDS011;10233;50.814;6.590;2023-02-05T04:25:01;31.13;;;13.60;;
20144;SDS011;10233;50.814;6.590;2023-02-05T04:26:02;28.65;;;13.82;;
20144;SDS011;10233;50.814;6.590;2023-02-05T04:27:08;29.25;;;13.77;;
20144;SDS011;10233;50.814;6.590;2023-02-05T04:28:09;37.08;;;15.48;;
20144;SDS011;10233;50.814;6.590;2023-02-05T04:29:10;32.25;;;14.77;;
20144;SDS011;10233;50.814;6.590;2023-02-05T04:30:16;28.98;;;14.07;;
20144;SDS011;10233;50.814;6.590;2023-02-05T04:31:19;32.88;;;14.10;;
20144;SDS011;10233;50.814;6.590;2023-02-05T04:32:19;32.70;;;14.80;;
20144;SDS011;10233;50.814;6.590;2023-02-05T04:33:21;32.78;;;14.75;;
20144;SDS011;10233;50.814;6.590;2023-02-05T04:34:21;33.07;;;14.63;;
20144;SDS011;10233;50.814;6.590;2023-02-05T04:35:23;33.85;;;14.77;;
20144;SDS011;10233;50.814;6.590;2023-02-05T04:36:23;31.73;;;14.40;;
20144;SDS011;10233;50.814;6.590;2023-02-05T04:37:24;35.17;;;15.02;;
20144;SDS011;10233;50.814;6.590;2023-02-05T04:38:24;32.57;;;14.50;;
20144;SDS011;10233;50.814;6.590;2023-02-05T04:39:25;34.50;;;15.57;;
20144;SDS011;10233;50.814;6.590;2023-02-05T04:40:26;33.75;;;15.75;;
20144;SDS011;10233;50.814;6.590;2023-02-05T04:41:26;32.67;;;15.07;;
20144;SDS011;10233;50.814;6.590;2023-02-05T04:42:27;35.10;;;15.48;;
20144;SDS011;10233;50.814;6.590;2023-02-05T04:43:28;36.22;;;15.30;;
20144;SDS011;10233;50.814;6.590;2023-02-05T04:44:28;36.30;;;15.33;;
20144;SDS011;10233;50.814;6.590;2023-02-05T04:45:29;26.17;;;11.70;;
20144;SDS011;10233;50.814;6.590;2023-02-05T04:46:30;24.08;;;10.13;;
20144;SDS011;10233;50.814;6.590;2023-02-05T04:47:30;21.73;;;10.43;;
20144;SDS011;10233;50.814;6.590;2023-02-05T04:48:32;23.52;;;11.15;;
20144;SDS011;10233;50.814;6.590;2023-02-05T04:49:33;23.33;;;10.82;;
20144;SDS011;10233;50.814;6.590;2023-02-05T04:50:34;25.00;;;11.10;;
20144;SDS011;10233;50.814;6.590;2023-02-05T04:51:34;22.47;;;10.57;;
20144;SDS011;10233;50.814;6.590;2023-02-05T04:52:35;21.13;;;9.73;;
20144;SDS011;10233;50.814;6.590;2023-02-05T04:53:35;23.00;;;10.30;;
20144;SDS011;10233;50.814;6.590;2023-02-05T04:54:37;25.42;;;11.40;;
20144;SDS011;10233;50.814;6.590;2023-02-05T04:55:37;25.55;;;11.50;;
20144;SDS011;10233;50.814;6.590;2023-02-05T04:56:38;23.65;;;10.07;;
20144;SDS011;10233;50.814;6.590;2023-02-05T04:57:38;25.47;;;10.73;;
20144;SDS011;10233;50.814;6.590;2023-02-05T04:58:39;25.67;;;11.00;;
20144;SDS011;10233;50.814;6.590;2023-02-05T04:59:40;24.95;;;11.32;;
20144;SDS011;10233;50.814;6.590;2023-02-05T05:00:41;28.70;;;12.50;;
20144;SDS011;10233;50.814;6.590;2023-02-05T05:01:42;29.17;;;12.00;;
20144;SDS011;10233;50.814;6.590;2023-02-05T05:02:42;25.08;;;11.50;;
20144;SDS011;10233;50.814;6.590;2023-02-05T05:03:43;32.80;;;13.10;;
20144;SDS011;10233;50.814;6.590;2023-02-05T05:04:43;31.33;;;13.10;;
20144;SDS011;10233;50.814;6.590;2023-02-05T05:05:44;30.63;;;13.10;;
20144;SDS011;10233;50.814;6.590;2023-02-05T05:06:46;26.17;;;12.55;;
20144;SDS011;10233;50.814;6.590;2023-02-05T05:07:46;30.92;;;12.93;;
20144;SDS011;10233;50.814;6.590;2023-02-05T05:08:47;25.45;;;10.65;;
20144;SDS011;10233;50.814;6.590;2023-02-05T05:09:48;21.60;;;9.13;;
20144;SDS011;10233;50.814;6.590;2023-02-05T05:10:48;14.87;;;6.73;;
20144;SDS011;10233;50.814;6.590;2023-02-05T05:11:52;14.40;;;6.40;;
20144;SDS011;10233;50.814;6.590;2023-02-05T05:12:53;14.95;;;6.65;;
20144;SDS011;10233;50.814;6.590;2023-02-05T05:13:54;15.33;;;6.83;;
20144;SDS011;10233;50.814;6.590;2023-02-05T05:14:54;16.48;;;7.43;;
20144;SDS011;10233;50.814;6.590;2023-02-05T05:15:55;16.87;;;8.30;;
20144;SDS011;10233;50.814;6.590;2023-02-05T05:16:56;17.42;;;8.27;;
20144;SDS011;10233;50.814;6.590;2023-02-05T05:17:56;17.75;;;7.90;;
20144;SDS011;10233;50.814;6.590;2023-02-05T05:18:56;18.07;;;8.57;;
20144;SDS011;10233;50.814;6.590;2023-02-05T05:19:57;17.87;;;8.23;;
20144;SDS011;10233;50.814;6.590;2023-02-05T05:20:57;17.90;;;8.37;;
20144;SDS011;10233;50.814;6.590;2023-02-05T05:21:58;19.35;;;8.32;;
20144;SDS011;10233;50.814;6.590;2023-02-05T05:22:59;18.67;;;8.50;;
20144;SDS011;10233;50.814;6.590;2023-02-05T05:23:59;19.63;;;8.57;;
20144;SDS011;10233;50.814;6.590;2023-02-05T05:25:00;18.93;;;8.83;;
20144;SDS011;10233;50.814;6.590;2023-02-05T05:26:02;20.23;;;8.20;;
20144;SDS011;10233;50.814;6.590;2023-02-05T05:27:04;20.85;;;8.18;;
20144;SDS011;10233;50.814;6.590;2023-02-05T05:28:05;21.93;;;9.50;;
20144;SDS011;10233;50.814;6.590;2023-02-05T05:29:05;21.17;;;9.68;;
20144;SDS011;10233;50.814;6.590;2023-02-05T05:30:07;19.43;;;9.40;;
20144;SDS011;10233;50.814;6.590;2023-02-05T05:31:12;21.88;;;10.13;;
20144;SDS011;10233;50.814;6.590;2023-02-05T05:32:18;23.88;;;10.68;;
20144;SDS011;10233;50.814;6.590;2023-02-05T05:33:18;24.90;;;11.02;;
20144;SDS011;10233;50.814;6.590;2023-02-05T05:34:19;27.37;;;11.57;;
20144;SDS011;10233;50.814;6.590;2023-02-05T05:35:20;23.08;;;10.90;;
20144;SDS011;10233;50.814;6.590;2023-02-05T05:36:20;25.08;;;11.63;;
20144;SDS011;10233;50.814;6.590;2023-02-05T05:37:21;25.20;;;11.57;;
20144;SDS011;10233;50.814;6.590;2023-02-05T05:38:22;25.55;;;11.40;;
20144;SDS011;10233;50.814;6.590;2023-02-05T05:39:22;28.40;;;12.17;;
20144;SDS011;10233;50.814;6.590;2023-02-05T05:40:41;24.55;;;11.90;;
20144;SDS011;10233;50.814;6.590;2023-02-05T05:42:01;28.92;;;13.13;;
20144;SDS011;10233;50.814;6.590;2023-02-05T05:43:20;26.45;;;11.98;;
20144;SDS011;10233;50.814;6.590;2023-02-05T05:44:39;30.03;;;13.47;;
20144;SDS011;10233;50.814;6.590;2023-02-05T05:45:39;29.07;;;12.83;;
20144;SDS011;10233;50.814;6.590;2023-02-05T05:46:40;25.77;;;12.93;;
20144;SDS011;10233;50.814;6.590;2023-02-05T05:47:40;27.65;;;12.57;;
20144;SDS011;10233;50.814;6.590;2023-02-05T05:48:41;27.53;;;12.93;;
20144;SDS011;10233;50.814;6.590;2023-02-05T05:49:41;27.08;;;12.57;;
20144;SDS011;10233;50.814;6.590;2023-02-05T05:50:42;29.53;;;14.10;;
20144;SDS011;10233;50.814;6.590;2023-02-05T05:51:42;32.27;;;13.83;;
20144;SDS011;10233;50.814;6.590;2023-02-05T05:52:42;26.63;;;12.98;;
20144;SDS011;10233;50.814;6.590;2023-02-05T05:53:43;32.93;;;13.67;;
20144;SDS011;10233;50.814;6.590;2023-02-05T05:54:44;30.52;;;14.68;;
20144;SDS011;10233;50.814;6.590;2023-02-05T05:55:46;31.77;;;14.13;;
20144;SDS011;10233;50.814;6.590;2023-02-05T05:56:46;29.45;;;13.25;;
20144;SDS011;10233;50.814;6.590;2023-02-05T05:57:48;29.13;;;13.02;;
20144;SDS011;10233;50.814;6.590;2023-02-05T05:58:49;31.75;;;14.43;;
20144;SDS011;10233;50.814;6.590;2023-02-05T05:59:49;31.73;;;14.70;;
20144;SDS011;10233;50.814;6.590;2023-02-05T06:00:50;31.05;;;14.75;;
20144;SDS011;10233;50.814;6.590;2023-02-05T06:01:50;32.33;;;14.30;;
20144;SDS011;10233;50.814;6.590;2023-02-05T06:02:50;30.63;;;13.60;;
20144;SDS011;10233;50.814;6.590;2023-02-05T06:03:51;27.80;;;13.33;;
20144;SDS011;10233;50.814;6.590;2023-02-05T06:04:51;30.73;;;13.98;;
20144;SDS011;10233;50.814;6.590;2023-02-05T06:05:52;31.13;;;14.47;;
20144;SDS011;10233;50.814;6.590;2023-02-05T06:06:52;29.63;;;13.17;;
20144;SDS011;10233;50.814;6.590;2023-02-05T06:07:53;30.15;;;13.82;;
20144;SDS011;10233;50.814;6.590;2023-02-05T06:08:53;30.47;;;14.60;;
20144;SDS011;10233;50.814;6.590;2023-02-05T06:09:54;30.30;;;13.45;;
20144;SDS011;10233;50.814;6.590;2023-02-05T06:10:54;32.87;;;14.17;;
20144;SDS011;10233;50.814;6.590;2023-02-05T06:11:55;30.23;;;13.52;;
20144;SDS011;10233;50.814;6.590;2023-02-05T06:12:55;30.97;;;14.60;;
20144;SDS011;10233;50.814;6.590;2023-02-05T06:13:56;30.80;;;14.55;;
20144;SDS011;10233;50.814;6.590;2023-02-05T06:14:57;29.73;;;13.75;;
20144;SDS011;10233;50.814;6.590;2023-02-05T06:15:57;30.27;;;13.73;;
20144;SDS011;10233;50.814;6.590;2023-02-05T06:16:58;29.55;;;13.63;;
20144;SDS011;10233;50.814;6.590;2023-02-05T06:17:58;29.83;;;13.33;;
20144;SDS011;10233;50.814;6.590;2023-02-05T06:18:59;27.42;;;12.70;;
20144;SDS011;10233;50.814;6.590;2023-02-05T06:20:00;28.00;;;13.43;;
20144;SDS011;10233;50.814;6.590;2023-02-05T06:21:00;29.17;;;13.03;;
20144;SDS011;10233;50.814;6.590;2023-02-05T06:22:02;26.80;;;13.27;;
20144;SDS011;10233;50.814;6.590;2023-02-05T06:23:03;28.25;;;13.25;;
20144;SDS011;10233;50.814;6.590;2023-02-05T06:24:03;26.73;;;12.27;;
20144;SDS011;10233;50.814;6.590;2023-02-05T06:25:04;25.00;;;10.93;;
20144;SDS011;10233;50.814;6.590;2023-02-05T06:26:05;24.63;;;11.80;;
20144;SDS011;10233;50.814;6.590;2023-02-05T06:27:05;23.97;;;12.40;;
20144;SDS011;10233;50.814;6.590;2023-02-05T06:28:06;23.67;;;11.48;;
20144;SDS011;10233;50.814;6.590;2023-02-05T06:29:06;24.60;;;11.60;;
20144;SDS011;10233;50.814;6.590;2023-02-05T06:30:08;24.50;;;11.52;;
20144;SDS011;10233;50.814;6.590;2023-02-05T06:31:09;24.60;;;12.45;;
20144;SDS011;10233;50.814;6.590;2023-02-05T06:32:09;24.07;;;11.87;;
20144;SDS011;10233;50.814;6.590;2023-02-05T06:33:10;23.92;;;11.38;;
20144;SDS011;10233;50.814;6.590;2023-02-05T06:34:11;23.80;;;11.35;;
20144;SDS011;10233;50.814;6.590;2023-02-05T06:35:12;24.55;;;11.52;;
20144;SDS011;10233;50.814;6.590;2023-02-05T06:36:12;28.20;;;12.77;;
20144;SDS011;10233;50.814;6.590;2023-02-05T06:37:13;27.40;;;12.05;;
20144;SDS011;10233;50.814;6.590;2023-02-05T06:38:14;23.73;;;11.98;;
20144;SDS011;10233;50.814;6.590;2023-02-05T06:39:14;23.93;;;11.20;;
20144;SDS011;10233;50.814;6.590;2023-02-05T06:40:15;25.08;;;11.98;;
20144;SDS011;10233;50.814;6.590;2023-02-05T06:41:17;24.25;;;11.90;;
20144;SDS011;10233;50.814;6.590;2023-02-05T06:42:17;25.03;;;12.33;;